Terminal Aerodrome Forecast
Issued by NWS

Home | Current Version | Previous Version | Text Only | Print | Product List | Glossary Off
Versions: 1 2 3 4 5 6 7 8 9 10 11 12 13 14 15

000
FTUS43 KIWX 281100
TAFSBN
TAF
KSBN 281140Z 2812/2912 00000KT P6SM FEW250
     FM281500 15008KT P6SM SCT120 BKN200
     FM282100 16012KT P6SM BKN120
     FM290200 16013G21KT P6SM SCT050 BKN150 WS020/19045KT PROB30
      2905/2908 -FZRA BKN050
     FM290800 17012G18KT 6SM -RA BR OVC025 WS020/21050KT=

USA.gov is the U.S. government's official web portal to all federal, state and local government web resources and services.